• Join FlightAware (Why Join?)
  • Login
  • US Flag 
12:35PM EST


 

Airport Tracker/Info


-or-


 

Live Flight TrackerFlight Track Log ✈ N143DE ✈ 29-Jun-2013 ✈ KRYY - KTRI

Flight Track Log - Related Links

Times and Time Zones

All times are in EDT time to prevent confusion due to time zone crossing. See the N143DE flight status page for this flight to view local times or setup timezone preferences in your user account.

Time Position Orientation Groundspeed Altitude Reporting Facility
EDT Latitude Longitude Course Direction KTS MPH feet Rate Location/Type
11:00AM 34.0333 -84.6500 32° Northeast 164 189 4,500  Level Atlanta TRACON
11:01AM 34.0667 -84.6167 40° Northeast 163 188 6,100 1,320 Climbing Atlanta TRACON
11:03AM 34.1125 -84.5631 44° Northeast 200 230 7,600 1,320 Climbing Atlanta Center
11:04AM 34.1586 -84.5158 40° Northeast 213 245 9,200 1,200 Climbing Atlanta Center
11:05AM 34.2111 -84.4583 42° Northeast 220 253 10,100 900 Climbing Atlanta Center
11:06AM 34.2619 -84.2536 32° Northeast  Level FlightAware Approximate
11:06AM 34.2614 -84.4008 43° Northeast 233 268 11,000  Level Atlanta Center
11:07AM 34.3156 -84.3456 40° Northeast 241 277 11,100  Climbing Atlanta Center
11:08AM 34.3783 -84.2981 32° Northeast 253 291 11,100 480 Level Atlanta Center
11:09AM 34.4411 -84.2553 29° Northeast 253 291 12,100 1,200 Climbing Atlanta Center
11:10AM 34.4933 -84.2203 29° Northeast 228 262 13,600 1,440 Climbing Atlanta Center
11:11AM 34.5456 -84.1825 31° Northeast 215 247 15,000 1,200 Climbing Atlanta Center
11:12AM 34.5894 -84.1397 39° Northeast 208 239 16,100 960 Climbing Atlanta Center
11:13AM 34.6353 -84.1019 34° Northeast 208 239 17,000 1,080 Climbing Atlanta Center
11:14AM 34.6856 -84.0539 38° Northeast 208 239 18,300 900 Climbing Atlanta Center
11:15AM 34.7356 -84.0083 37° Northeast 208 239 18,800 360 Climbing Atlanta Center
11:16AM 34.7897 -83.9603 36° Northeast 219 252 19,100 120 Climbing Atlanta Center
11:17AM 34.8481 -83.9072 37° Northeast 242 278 19,100 -60 Level Atlanta Center
11:18AM 34.9044 -83.8589 35° Northeast 260 299 19,000 -60 Descending Atlanta Center
11:19AM 34.9711 -83.8006 36° Northeast 265 305 19,000  Level Atlanta Center
11:20AM 35.0336 -83.7469 35° Northeast 270 311 19,000  Level Atlanta Center
11:21AM 35.0961 -83.6908 36° Northeast 270 311 19,000  Level Atlanta Center
11:22AM 35.1564 -83.6347 37° Northeast 270 311 19,000  Level Atlanta Center
11:23AM 35.2189 -83.5786 36° Northeast 270 311 19,000  Level Atlanta Center
11:24AM 35.2811 -83.5172 39° Northeast 270 311 19,000  Level Atlanta Center
11:25AM 35.3456 -83.4633 34° Northeast 270 311 19,000  Level Atlanta Center
11:26AM 35.4058 -83.4042 39° Northeast 270 311 19,000 -300 Level Atlanta Center
11:27AM 35.4722 -83.3453 36° Northeast 270 311 18,400 -900 Descending Atlanta Center
11:28AM 35.5406 -83.2833 36° Northeast 275 316 17,200 -720 Descending Atlanta Center
11:29AM 35.6069 -83.2214 37° Northeast 293 337 17,000 -840 Descending Atlanta Center
11:30AM 35.6756 -83.1542 39° Northeast 298 343 15,600 -1,740 Descending Atlanta Center
11:31AM 35.7481 -83.0894 36° Northeast 312 359 13,600 -1,320 Descending Atlanta Center
11:32AM 35.8183 -83.0247 37° Northeast 320 368 13,000 -720 Descending Atlanta Center
11:33AM 35.8825 -82.9622 38° Northeast 309 356 12,200 -960 Descending Atlanta Center
11:34AM 35.9467 -82.9025 37° Northeast 296 341 11,100 -600 Descending Atlanta Center
11:35AM 36.0108 -82.8450 36° Northeast 286 329 11,000 -60 Descending Atlanta Center
11:36AM 36.0706 -82.7878 38° Northeast 273 314 11,000 -840 Level Atlanta Center
11:37AM 36.1306 -82.7225 41° Northeast 275 316 9,400 -1,620 Descending Atlanta Center
11:38AM 36.1881 -82.6519 45° Northeast 283 326 7,800 -1,200 Descending Atlanta Center
11:39AM 36.2353 -82.5894 47° Northeast 267 307 7,000 -1,140 Descending Atlanta Center
11:40AM 36.2806 -82.5319 46° Northeast 240 276 5,600 -1,380 Descending Atlanta Center
11:41AM 36.3258 -82.4744 46° Northeast 230 265 4,300 -900 Descending Atlanta Center
11:42AM 36.3667 -82.4194 47° Northeast 218 251 3,900 -420 Descending Atlanta Center
11:44AM 36.4667 -82.4000 39° Northeast  Level FlightAware Approximate
11:51AM 36.4752 -82.4074 39° Northeast  Level Estimated
11:52AM 36.4752 -82.4074 39° Northeast  Level Estimated
11:53AM 36.4752 -82.4074 39° Northeast  Level Estimated
11:54AM 36.4752 -82.4074 39° Northeast  Level Estimated
11:55AM 36.4752 -82.4074 39° Northeast  Level Estimated